This is the latest recevied weather packets stored in our database for station/object NA4DL. If no packets are shown the sender has not sent any weather packets the latest 10 day(s).
| Time | Temp. | Humidity | Pressure | Rain* | Wind** | Luminosity | Snow |
|---|---|---|---|---|---|---|---|
| 1777738217 | 16.11° C | 51% | 1016.6 hPa | 0 mm | - | 142 W/m² | - |
| 1777735233 | 14.44° C | 55% | 1016.6 hPa | 0 mm | - | 53 W/m² | - |
| 1777727420 | 10° C | 78% | 1016.2 hPa | 0 mm | - | 28 W/m² | - |
| 1777726240 | 7.22° C | 98% | 1016.2 hPa | 0 mm | - | 38 W/m² | - |
| 1777722021 | 3.89° C | 99% | 1015.8 hPa | 0 mm | - | 15 W/m² | - |
| 1777721421 | 3.89° C | 99% | 1015.6 hPa | 0 mm | - | 11 W/m² | - |
| 1777717222 | 4.44° C | 98% | 1015.2 hPa | 0 mm | - | 0 W/m² | - |
| 1777714223 | 5.56° C | 96% | 1015.2 hPa | 0 mm | - | 0 W/m² | - |
| 1777713643 | 5.56° C | 96% | 1015.3 hPa | 0 mm | - | 0 W/m² | - |
| 1777713023 | 6.11° C | 96% | 1015.3 hPa | 0 mm | - | 0 W/m² | - |
| 1777711223 | 6.67° C | 94% | 1015.2 hPa | 0 mm | - | 0 W/m² | - |
| 1777706425 | 7.78° C | 88% | 1015.8 hPa | 0 mm | - | 0 W/m² | - |
| 1777705825 | 7.78° C | 87% | 1015.8 hPa | 0 mm | - | 0 W/m² | - |
| 1777701626 | 8.33° C | 81% | 1016 hPa | 0 mm | - | 0 W/m² | - |
| 1777701026 | 8.89° C | 78% | 1016.1 hPa | 0 mm | - | 0 W/m² | - |
| 1777695628 | 10° C | 74% | 1015.7 hPa | 0 mm | - | 0 W/m² | - |
| 1777693878 | 10.56° C | 69% | 1016 hPa | 0 mm | - | 0 W/m² | - |
| 1777687818 | 11.67° C | 67% | 1015.9 hPa | 0 mm | - | 0 W/m² | - |
| 1777687218 | 11.67° C | 67% | 1015.8 hPa | 0 mm | - | 0 W/m² | - |
| 1777686064 | 11.67° C | 65% | 1015.6 hPa | 0 mm | - | 0 W/m² | - |
| 1777680637 | 15° C | 53% | 1014.3 hPa | 0 mm | - | 20 W/m² | - |
| 1777678817 | 16.11° C | 49% | 1013.5 hPa | 0 mm | - | 93 W/m² | - |
| 1777678238 | 15.56° C | 51% | 1013.4 hPa | 0 mm | - | 70 W/m² | - |
| 1777677018 | 16.67° C | 49% | 1013.4 hPa | 0 mm | - | 67 W/m² | - |
| 1777676418 | 16.67° C | 48% | 1013.4 hPa | 0 mm | - | 100 W/m² | - |
* Rain latest hour (hover to see other rain measurements)
** Current wind speed in m/s (hover to see current wind gust speed)